Time;durP1;ratioP1;P1;durP2;ratioP2;P2;SDS_P1;SDS_P2;PMS_P1;PMS_P2;Temp;Humidity;BMP_temperature;BMP_pressure;BME280_temperature;BME280_humidity;BME280_pressure;Samples;Min_cycle;Max_cycle;Signal;HPM_P1;HPM_P2
2022/05/29 00:02:12;;;;;;;6.53;3.30;;;11.10;1.00;;;;;;6177882;28;20240;-54
2022/05/29 00:05:16;;;;;;;8.50;4.47;;;11.10;1.00;;;;;;6190719;28;20599;-54
2022/05/29 00:08:26;;;;;;;8.80;4.20;;;11.00;1.00;;;;;;6186666;28;20262;-55
2022/05/29 00:11:30;;;;;;;5.57;3.80;;;11.00;1.00;;;;;;6177256;28;20243;-55
2022/05/29 00:14:34;;;;;;;5.23;3.57;;;10.90;1.00;;;;;;6185264;28;20614;-55
2022/05/29 00:17:37;;;;;;;5.00;3.97;;;10.70;1.00;;;;;;6172569;28;20258;-55
2022/05/29 00:20:41;;;;;;;8.93;4.70;;;10.90;1.00;;;;;;6154732;28;20301;-53
2022/05/29 00:23:44;;;;;;;3.87;3.67;;;10.80;1.00;;;;;;6185111;28;20236;-54
2022/05/29 00:26:48;;;;;;;6.00;3.53;;;10.70;1.00;;;;;;6165984;28;20318;-54
2022/05/29 00:29:51;;;;;;;4.03;3.63;;;10.70;1.00;;;;;;6162623;28;20311;-53
2022/05/29 00:32:54;;;;;;;3.73;3.47;;;10.70;1.00;;;;;;6166427;28;20244;-55
2022/05/29 00:35:56;;;;;;;7.43;4.20;;;10.70;1.00;;;;;;6187480;28;20790;-55
2022/05/29 00:38:59;;;;;;;8.17;3.33;;;10.70;1.00;;;;;;6175285;28;20284;-54
2022/05/29 00:42:06;;;;;;;8.47;3.93;;;10.70;1.00;;;;;;6176701;28;20313;-54
2022/05/29 00:45:16;;;;;;;4.63;3.30;;;10.70;1.00;;;;;;6184481;28;20271;-55
2022/05/29 00:48:19;;;;;;;6.47;3.63;;;10.70;1.00;;;;;;6178814;28;20480;-54
2022/05/29 00:51:23;;;;;;;6.33;3.80;;;10.70;1.00;;;;;;6158861;28;20323;-55
2022/05/29 00:54:26;;;;;;;4.07;3.37;;;10.70;1.00;;;;;;6161500;28;20296;-55
2022/05/29 00:57:32;;;;;;;3.80;3.40;;;10.70;1.00;;;;;;6160166;28;20480;-54
2022/05/29 01:00:35;;;;;;;9.97;4.07;;;10.70;1.00;;;;;;6176748;28;20243;-55
2022/05/29 01:03:38;;;;;;;4.93;3.37;;;10.70;1.00;;;;;;6194064;28;20237;-54
2022/05/29 01:06:41;;;;;;;5.10;3.43;;;10.70;1.00;;;;;;6186660;28;20243;-54
2022/05/29 01:09:47;;;;;;;4.67;3.50;;;10.80;1.00;;;;;;6192370;28;20237;-55
2022/05/29 01:13:00;;;;;;;4.87;3.40;;;10.80;1.00;;;;;;6185039;28;20236;-53
2022/05/29 01:16:08;;;;;;;6.47;3.30;;;10.80;1.00;;;;;;6168754;28;20328;-54
2022/05/29 01:19:41;;;;;;;4.37;3.20;;;10.80;1.00;;;;;;6161407;28;20322;-55
2022/05/29 01:23:23;;;;;;;8.60;3.90;;;10.80;1.00;;;;;;6159251;28;20262;-54
2022/05/29 01:26:58;;;;;;;3.77;3.47;;;10.80;1.00;;;;;;6161277;28;20457;-54
2022/05/29 01:30:07;;;;;;;5.47;4.53;;;10.80;1.00;;;;;;6155824;28;20324;-55
2022/05/29 01:33:23;;;;;;;13.20;4.03;;;10.80;1.00;;;;;;6190112;28;20367;-54
2022/05/29 01:36:34;;;;;;;12.20;3.73;;;10.80;1.00;;;;;;6198306;28;20563;-55
2022/05/29 01:39:41;;;;;;;6.50;3.40;;;10.80;1.00;;;;;;6194921;28;20236;-57
2022/05/29 01:42:48;;;;;;;4.90;3.60;;;10.70;1.00;;;;;;6172940;28;20243;-57
2022/05/29 01:45:58;;;;;;;5.47;3.50;;;10.70;1.00;;;;;;6183966;28;20854;-54
2022/05/29 01:49:07;;;;;;;6.97;3.90;;;10.70;1.00;;;;;;6169190;28;20326;-54
2022/05/29 01:52:14;;;;;;;7.67;4.07;;;10.70;1.00;;;;;;6157960;28;20316;-54
2022/05/29 01:55:24;;;;;;;6.60;3.73;;;10.70;1.00;;;;;;6161148;28;20240;-54
2022/05/29 01:58:33;;;;;;;4.87;3.77;;;10.70;1.00;;;;;;6160215;28;20237;-55
2022/05/29 02:01:44;;;;;;;4.13;3.53;;;10.70;1.00;;;;;;6160334;28;20731;-53
2022/05/29 02:04:51;;;;;;;6.47;3.70;;;10.70;1.00;;;;;;6187669;28;20227;-54
2022/05/29 02:08:00;;;;;;;5.03;3.77;;;10.70;1.00;;;;;;6179965;28;20724;-53
2022/05/29 02:11:07;;;;;;;5.23;3.90;;;10.70;1.00;;;;;;6189928;28;20228;-54
2022/05/29 02:14:15;;;;;;;3.93;3.43;;;10.70;1.00;;;;;;6184312;28;20582;-54
2022/05/29 02:17:24;;;;;;;8.93;4.17;;;10.70;1.00;;;;;;6184033;28;20319;-54
2022/05/29 02:20:30;;;;;;;3.97;3.63;;;10.70;1.00;;;;;;6181477;28;20333;-55
2022/05/29 02:23:37;;;;;;;5.97;3.63;;;10.70;1.00;;;;;;6170315;28;20241;-54
2022/05/29 02:26:43;;;;;;;6.83;3.60;;;10.70;1.00;;;;;;6158273;28;20259;-54
2022/05/29 02:29:46;;;;;;;6.00;4.00;;;10.70;1.00;;;;;;6164039;28;20240;-54
2022/05/29 02:33:03;;;;;;;5.00;3.60;;;10.70;1.00;;;;;;6172715;28;20243;-55
2022/05/29 02:39:43;;;;;;;4.00;3.50;;;10.70;1.00;;;;;;6201222;28;20236;-54
2022/05/29 02:42:57;;;;;;;5.60;4.13;;;10.60;1.00;;;;;;6185069;28;20298;-54
2022/05/29 02:46:07;;;;;;;4.93;4.27;;;10.70;1.00;;;;;;6179864;28;20244;-55
2022/05/29 02:49:16;;;;;;;3.80;3.30;;;10.70;1.00;;;;;;6163812;28;20240;-55
2022/05/29 02:52:19;;;;;;;4.47;3.67;;;10.70;1.00;;;;;;6161963;28;20236;-55
2022/05/29 02:55:23;;;;;;;3.90;3.60;;;10.70;1.00;;;;;;6163890;28;20243;-54
2022/05/29 02:58:31;;;;;;;4.40;3.80;;;10.70;1.00;;;;;;6162842;28;20322;-54
2022/05/29 03:01:43;;;;;;;3.93;3.60;;;10.70;1.00;;;;;;6161450;28;20241;-54
2022/05/29 03:05:06;;;;;;;6.60;3.37;;;10.70;1.00;;;;;;6183227;28;20243;-55
2022/05/29 03:08:41;;;;;;;5.53;3.67;;;10.70;1.00;;;;;;6188848;28;20741;-54
2022/05/29 03:11:45;;;;;;;3.87;3.60;;;10.70;1.00;;;;;;6186436;28;20620;-53
2022/05/29 03:15:19;;;;;;;4.60;4.10;;;10.70;1.00;;;;;;6187102;28;20243;-55
2022/05/29 03:18:40;;;;;;;4.47;3.57;;;10.70;1.00;;;;;;6187248;28;20330;-54
2022/05/29 03:21:50;;;;;;;4.40;3.90;;;10.70;1.00;;;;;;6159473;28;20376;-55
2022/05/29 03:25:00;;;;;;;4.70;3.77;;;10.70;1.00;;;;;;6163202;28;20232;-54
2022/05/29 03:28:07;;;;;;;3.90;3.60;;;10.70;1.00;;;;;;6163420;28;20241;-54
2022/05/29 03:31:15;;;;;;;7.50;4.00;;;10.70;1.00;;;;;;6159449;28;20611;-55
2022/05/29 03:34:21;;;;;;;4.23;3.83;;;10.70;1.00;;;;;;6173160;28;20252;-54
2022/05/29 03:37:25;;;;;;;5.60;3.90;;;10.70;1.00;;;;;;6181884;28;20323;-54
2022/05/29 03:40:30;;;;;;;5.70;4.23;;;10.70;1.00;;;;;;6186756;28;20391;-50
2022/05/29 03:43:33;;;;;;;5.40;4.17;;;10.70;1.00;;;;;;6174774;28;20243;-54
2022/05/29 03:46:36;;;;;;;6.00;3.73;;;10.80;1.00;;;;;;6183437;28;20243;-55
2022/05/29 03:49:40;;;;;;;8.40;4.07;;;10.80;1.00;;;;;;6186292;28;20232;-54
2022/05/29 03:52:45;;;;;;;5.70;3.60;;;10.80;1.00;;;;;;6174707;28;20375;-54
2022/05/29 03:55:48;;;;;;;7.37;4.00;;;10.80;1.00;;;;;;6182478;28;20285;-54
2022/05/29 03:58:50;;;;;;;7.87;4.33;;;10.80;1.00;;;;;;6171605;28;20317;-55
2022/05/29 04:01:53;;;;;;;4.90;4.17;;;10.80;1.00;;;;;;6180961;28;20239;-54
2022/05/29 04:04:56;;;;;;;4.27;4.00;;;10.80;1.00;;;;;;6182556;28;20232;-55
2022/05/29 04:14:42;;;;;;;4.50;4.20;;;10.80;1.00;;;;;;6183678;28;20429;-54
2022/05/29 04:17:45;;;;;;;5.17;4.73;;;10.90;1.00;;;;;;6179691;28;20246;-54
2022/05/29 04:20:51;;;;;;;6.17;4.50;;;10.90;1.00;;;;;;6181636;28;20240;-55
2022/05/29 04:23:55;;;;;;;5.43;3.80;;;11.00;1.00;;;;;;6179331;28;20323;-54
2022/05/29 04:26:58;;;;;;;6.83;4.50;;;11.00;1.00;;;;;;6183954;28;20322;-54
2022/05/29 04:30:01;;;;;;;5.63;4.17;;;11.00;1.00;;;;;;6184930;28;20227;-55
2022/05/29 04:33:04;;;;;;;5.40;4.30;;;11.00;1.00;;;;;;6179598;28;20250;-55
2022/05/29 04:36:07;;;;;;;6.20;4.07;;;11.00;1.00;;;;;;6179016;28;20291;-50
2022/05/29 04:39:11;;;;;;;8.13;3.93;;;11.00;1.00;;;;;;6185375;28;20795;-58
2022/05/29 04:42:14;;;;;;;7.17;4.47;;;11.10;1.00;;;;;;6176303;28;20342;-53
2022/05/29 04:45:17;;;;;;;8.27;4.03;;;11.10;1.00;;;;;;6181858;28;20231;-55
2022/05/29 04:48:21;;;;;;;4.77;4.17;;;11.20;1.00;;;;;;6185377;28;20310;-53
2022/05/29 04:51:25;;;;;;;4.43;3.97;;;11.20;1.00;;;;;;6184952;28;20251;-53
2022/05/29 04:54:29;;;;;;;10.83;4.07;;;11.20;1.00;;;;;;6180709;28;20236;-54
2022/05/29 04:57:32;;;;;;;4.47;4.07;;;11.20;1.00;;;;;;6186220;28;20244;-55
2022/05/29 05:00:35;;;;;;;7.33;4.43;;;11.20;1.00;;;;;;6188327;28;20723;-55
2022/05/29 05:03:37;;;;;;;7.10;4.00;;;11.20;1.00;;;;;;6182640;28;20810;-55
2022/05/29 05:06:40;;;;;;;8.73;4.33;;;11.30;1.00;;;;;;6182660;28;21230;-54
2022/05/29 05:09:44;;;;;;;7.37;4.67;;;11.30;1.00;;;;;;6189007;28;20747;-55
2022/05/29 05:12:47;;;;;;;6.37;4.17;;;11.30;1.00;;;;;;6184977;28;20663;-54
2022/05/29 05:15:50;;;;;;;6.13;3.87;;;11.30;1.00;;;;;;6186188;28;20582;-54
2022/05/29 05:18:54;;;;;;;6.67;4.07;;;11.40;1.00;;;;;;6187431;28;20512;-55
2022/05/29 05:21:56;;;;;;;5.73;4.00;;;11.50;1.00;;;;;;6181913;28;20597;-55
2022/05/29 05:25:01;;;;;;;7.13;4.53;;;11.50;1.00;;;;;;6179754;28;20625;-55
2022/05/29 05:28:04;;;;;;;4.73;4.17;;;11.50;1.00;;;;;;6181623;28;20239;-53
2022/05/29 05:31:06;;;;;;;8.30;4.40;;;11.60;1.00;;;;;;6182756;28;20551;-55
2022/05/29 05:34:09;;;;;;;4.97;4.23;;;11.70;1.00;;;;;;6174156;28;20236;-55
2022/05/29 05:37:14;;;;;;;12.13;4.50;;;11.60;1.00;;;;;;6179539;28;20355;-55
2022/05/29 05:40:18;;;;;;;4.90;4.20;;;11.60;1.00;;;;;;6189812;28;20259;-54
2022/05/29 05:43:21;;;;;;;7.13;4.20;;;11.60;1.00;;;;;;6180458;28;20239;-55
2022/05/29 05:46:24;;;;;;;8.83;4.23;;;11.60;1.00;;;;;;6182791;28;20243;-55
2022/05/29 05:49:26;;;;;;;6.43;4.10;;;11.60;1.00;;;;;;6185177;28;20236;-54
2022/05/29 05:52:29;;;;;;;9.80;4.63;;;11.50;1.00;;;;;;6184095;28;20770;-56
2022/05/29 05:55:36;;;;;;;7.83;4.87;;;11.60;1.00;;;;;;6182094;28;20231;-53
2022/05/29 05:58:39;;;;;;;8.10;4.37;;;11.50;1.00;;;;;;6183519;28;20239;-54
2022/05/29 06:01:42;;;;;;;9.43;4.67;;;11.50;1.00;;;;;;6180956;28;20287;-55
2022/05/29 06:04:45;;;;;;;5.97;4.60;;;11.50;1.00;;;;;;6188704;28;20739;-55
2022/05/29 06:07:50;;;;;;;7.37;4.90;;;11.50;1.00;;;;;;6177421;28;20236;-55
2022/05/29 06:10:54;;;;;;;7.67;5.30;;;11.50;1.00;;;;;;6178289;28;20366;-56
2022/05/29 06:13:57;;;;;;;13.63;5.00;;;11.50;1.00;;;;;;6196763;28;20255;-55
2022/05/29 06:17:00;;;;;;;9.47;5.30;;;11.60;1.00;;;;;;6190801;28;20335;-57
2022/05/29 06:20:03;;;;;;;5.03;4.13;;;11.80;1.00;;;;;;6184254;28;20764;-54
2022/05/29 06:23:06;;;;;;;8.90;5.00;;;11.80;1.00;;;;;;6183820;28;20283;-55
2022/05/29 06:26:12;;;;;;;9.13;5.13;;;11.90;1.00;;;;;;6195092;28;20228;-55
2022/05/29 06:29:15;;;;;;;7.23;4.23;;;12.00;1.00;;;;;;6192310;28;20727;-53
2022/05/29 06:32:18;;;;;;;6.93;4.60;;;12.00;1.00;;;;;;6189428;28;20755;-55
2022/05/29 06:35:21;;;;;;;5.80;4.43;;;12.00;1.00;;;;;;6177382;28;20401;-55
2022/05/29 06:38:24;;;;;;;5.27;4.50;;;12.20;1.00;;;;;;6189371;28;20232;-54
2022/05/29 06:41:30;;;;;;;5.83;4.83;;;12.40;1.00;;;;;;6184608;28;20661;-54
2022/05/29 06:44:32;;;;;;;6.53;4.50;;;12.50;1.00;;;;;;6192775;28;20243;-55
2022/05/29 06:47:35;;;;;;;9.27;4.50;;;12.60;1.00;;;;;;6187453;28;20236;-54
2022/05/29 06:50:38;;;;;;;8.87;4.60;;;12.70;1.00;;;;;;6184360;28;20232;-55
2022/05/29 06:53:41;;;;;;;8.77;4.50;;;12.80;1.00;;;;;;6198418;28;20258;-55
2022/05/29 06:56:45;;;;;;;4.93;3.80;;;12.90;1.00;;;;;;6188293;28;20297;-54
2022/05/29 07:09:53;;;;;;;7.87;4.50;;;12.70;1.00;;;;;;6174269;28;20233;-51
2022/05/29 07:12:58;;;;;;;6.17;3.90;;;12.50;1.00;;;;;;6189803;28;20230;-54
2022/05/29 07:16:01;;;;;;;6.93;4.03;;;12.50;1.00;;;;;;6183616;28;20505;-55
2022/05/29 07:19:05;;;;;;;4.57;4.17;;;12.40;1.00;;;;;;6193205;28;20506;-55
2022/05/29 07:22:08;;;;;;;5.60;4.23;;;12.60;1.00;;;;;;6183483;28;20238;-55
2022/05/29 07:25:12;;;;;;;5.47;4.00;;;13.00;1.00;;;;;;6191703;28;20253;-55
2022/05/29 07:28:16;;;;;;;6.43;4.30;;;13.30;1.00;;;;;;6189750;28;20251;-55
2022/05/29 07:31:19;;;;;;;4.93;3.90;;;13.70;1.00;;;;;;6188374;28;20239;-55
2022/05/29 07:34:24;;;;;;;6.63;3.70;;;13.80;1.00;;;;;;6187046;28;20322;-54
2022/05/29 07:37:27;;;;;;;4.63;4.20;;;13.80;1.00;;;;;;6185801;28;20296;-55
2022/05/29 07:40:30;;;;;;;4.63;4.23;;;13.80;1.00;;;;;;6196730;28;20240;-55
2022/05/29 07:43:33;;;;;;;7.07;3.87;;;13.80;1.00;;;;;;6178712;28;20232;-54
2022/05/29 07:46:36;;;;;;;3.97;3.67;;;13.80;1.00;;;;;;6191602;28;20678;-55
2022/05/29 07:49:39;;;;;;;9.30;3.70;;;13.90;1.00;;;;;;6187404;28;20243;-55
2022/05/29 07:52:42;;;;;;;4.13;3.80;;;13.80;1.00;;;;;;6174927;28;20606;-55
2022/05/29 07:55:45;;;;;;;5.13;4.27;;;13.80;1.00;;;;;;6187701;28;20309;-53
2022/05/29 07:58:49;;;;;;;5.03;3.73;;;13.60;1.00;;;;;;6191223;28;20362;-54
2022/05/29 08:01:52;;;;;;;4.73;3.53;;;13.50;1.00;;;;;;6192954;28;20776;-54
2022/05/29 08:04:59;;;;;;;4.63;3.77;;;13.30;1.00;;;;;;6186506;28;20251;-55
2022/05/29 08:08:04;;;;;;;3.97;3.60;;;13.20;1.00;;;;;;6178489;28;20749;-53
2022/05/29 08:11:07;;;;;;;5.10;3.70;;;13.00;1.00;;;;;;6189972;28;20227;-54
2022/05/29 08:14:11;;;;;;;7.23;4.27;;;13.00;1.00;;;;;;6167897;28;20455;-52
2022/05/29 08:17:13;;;;;;;5.30;4.03;;;13.00;1.00;;;;;;6180916;28;20251;-53
2022/05/29 08:20:17;;;;;;;7.37;4.13;;;13.10;1.00;;;;;;6174955;28;20242;-55
2022/05/29 08:23:20;;;;;;;4.23;3.90;;;13.20;1.00;;;;;;6188123;28;20328;-53
2022/05/29 08:33:01;;;;;;;6.10;3.60;;;13.50;1.00;;;;;;6188377;28;20423;-53
2022/05/29 08:36:06;;;;;;;5.20;3.63;;;13.50;1.00;;;;;;6174524;28;20806;-55
2022/05/29 08:39:09;;;;;;;4.70;3.60;;;13.60;1.00;;;;;;6195058;28;20246;-52
2022/05/29 08:42:14;;;;;;;3.67;3.40;;;13.40;1.00;;;;;;6175287;28;20390;-55
2022/05/29 08:45:19;;;;;;;2.93;2.80;;;13.40;1.00;;;;;;6183928;28;20589;-59
2022/05/29 08:48:26;;;;;;;3.30;2.97;;;13.50;1.00;;;;;;6183536;28;20627;-56
2022/05/29 08:51:43;;;;;;;4.10;3.10;;;13.50;1.00;;;;;;6190267;28;20315;-53
2022/05/29 08:54:51;;;;;;;3.53;3.23;;;13.60;1.00;;;;;;6185003;28;20382;-52
2022/05/29 08:58:02;;;;;;;3.57;3.23;;;13.60;1.00;;;;;;6196103;28;20744;-57
2022/05/29 09:01:15;;;;;;;3.47;3.17;;;13.70;1.00;;;;;;6185116;28;20240;-54
2022/05/29 09:04:31;;;;;;;3.57;3.20;;;13.90;1.00;;;;;;6183083;28;20269;-55
2022/05/29 09:07:38;;;;;;;3.93;3.13;;;14.10;1.00;;;;;;6167825;28;20670;-56
2022/05/29 09:10:44;;;;;;;3.30;3.13;;;14.50;1.00;;;;;;6177378;28;20231;-55
2022/05/29 09:13:51;;;;;;;4.80;3.20;;;14.90;1.00;;;;;;6174911;28;20319;-57
2022/05/29 09:17:00;;;;;;;3.13;2.93;;;15.00;1.00;;;;;;6174677;28;20236;-58
2022/05/29 09:20:09;;;;;;;4.93;3.00;;;14.90;1.00;;;;;;6175730;28;20491;-56
2022/05/29 09:23:20;;;;;;;3.93;3.10;;;14.80;1.00;;;;;;6178596;28;20228;-57
2022/05/29 09:26:23;;;;;;;3.73;3.53;;;14.70;1.00;;;;;;6181704;28;20247;-57
2022/05/29 09:29:25;;;;;;;4.80;3.03;;;14.40;1.00;;;;;;6173022;28;20671;-56
2022/05/29 09:32:32;;;;;;;3.53;2.87;;;14.40;1.00;;;;;;6176866;28;20458;-56
2022/05/29 09:35:41;;;;;;;3.20;3.10;;;14.40;1.00;;;;;;6173975;28;20749;-56
2022/05/29 09:38:48;;;;;;;4.43;3.17;;;14.50;1.00;;;;;;6188763;28;20306;-55
2022/05/29 09:42:01;;;;;;;5.10;3.23;;;14.60;1.00;;;;;;6186267;28;20663;-57
2022/05/29 09:45:11;;;;;;;2.93;2.80;;;14.60;1.00;;;;;;6190209;28;20240;-56
2022/05/29 09:51:50;;;;;;;3.27;2.97;;;14.80;1.00;;;;;;6182896;28;20236;-56
2022/05/29 09:54:56;;;;;;;2.83;2.63;;;14.70;1.00;;;;;;6188502;28;20293;-55
2022/05/29 09:58:02;;;;;;;3.03;2.70;;;14.30;1.00;;;;;;6190290;28;20241;-58
2022/05/29 10:01:07;;;;;;;2.90;2.43;;;13.80;1.00;;;;;;6187969;28;20231;-56
2022/05/29 10:04:16;;;;;;;3.10;2.97;;;13.70;1.00;;;;;;6198328;28;20244;-57
2022/05/29 10:07:29;;;;;;;3.30;3.10;;;13.50;1.00;;;;;;6186771;28;20236;-57
2022/05/29 10:10:34;;;;;;;3.77;3.23;;;13.50;1.00;;;;;;6189973;28;20310;-57
2022/05/29 10:13:39;;;;;;;4.20;3.27;;;13.40;1.00;;;;;;6197889;28;20231;-57
2022/05/29 10:16:42;;;;;;;4.80;3.53;;;13.40;1.00;;;;;;6205301;28;20326;-57
2022/05/29 10:19:47;;;;;;;4.23;3.83;;;13.40;1.00;;;;;;6185729;28;20240;-57
2022/05/29 10:22:52;;;;;;;4.63;4.20;;;13.60;1.00;;;;;;6189785;28;20294;-57
2022/05/29 10:25:57;;;;;;;4.30;3.60;;;13.70;1.00;;;;;;6195705;28;20286;-56
2022/05/29 10:29:01;;;;;;;3.40;3.20;;;14.00;1.00;;;;;;6181625;28;20398;-57
2022/05/29 10:32:07;;;;;;;4.40;3.50;;;14.20;1.00;;;;;;6194058;28;20644;-57
2022/05/29 10:35:26;;;;;;;3.77;3.47;;;14.30;1.00;;;;;;6187771;28;20337;-57
2022/05/29 10:38:30;;;;;;;3.43;3.13;;;14.40;1.00;;;;;;6188935;28;20419;-57
2022/05/29 10:41:36;;;;;;;2.67;2.57;;;14.50;1.00;;;;;;6183181;28;20241;-56
2022/05/29 10:44:42;;;;;;;3.50;3.20;;;14.40;1.00;;;;;;6190973;28;20396;-56
2022/05/29 10:48:01;;;;;;;3.53;3.43;;;14.60;1.00;;;;;;6199305;28;20246;-56
2022/05/29 10:51:21;;;;;;;3.70;3.50;;;14.80;1.00;;;;;;6184961;28;20306;-55
2022/05/29 10:54:35;;;;;;;3.07;2.97;;;14.70;1.00;;;;;;6193219;28;20243;-57
2022/05/29 10:57:59;;;;;;;3.70;3.60;;;14.70;1.00;;;;;;6183498;28;20255;-56
2022/05/29 11:04:46;;;;;;;3.00;2.70;;;14.60;1.00;;;;;;6193993;28;20816;-58
2022/05/29 11:08:01;;;;;;;2.80;2.63;;;14.60;1.00;;;;;;6185455;28;20403;-57
2022/05/29 11:11:21;;;;;;;3.33;3.03;;;14.50;1.00;;;;;;6190960;28;20464;-56
2022/05/29 11:14:58;;;;;;;2.47;2.43;;;14.40;1.00;;;;;;6188886;28;20298;-56
2022/05/29 11:18:32;;;;;;;2.97;2.83;;;14.60;1.00;;;;;;6183271;28;21122;-56
2022/05/29 11:21:48;;;;;;;3.47;2.57;;;14.80;1.00;;;;;;6181377;28;20292;-56
2022/05/29 11:25:07;;;;;;;2.50;2.40;;;15.10;1.00;;;;;;6186443;28;20278;-56
2022/05/29 11:28:25;;;;;;;2.17;2.17;;;15.20;1.00;;;;;;6182784;28;20294;-58
2022/05/29 11:31:37;;;;;;;2.30;2.20;;;15.20;1.00;;;;;;6184756;28;20240;-57
2022/05/29 11:34:52;;;;;;;2.33;2.30;;;15.40;1.00;;;;;;6183393;28;20798;-56
2022/05/29 11:38:09;;;;;;;3.47;2.60;;;15.60;1.00;;;;;;6181802;28;20366;-57
2022/05/29 11:41:18;;;;;;;3.47;3.27;;;16.00;1.00;;;;;;6188462;28;20783;-56
2022/05/29 11:44:26;;;;;;;3.10;2.87;;;15.80;1.00;;;;;;6185051;28;20235;-57
2022/05/29 11:51:15;;;;;;;3.23;2.83;;;15.90;1.00;;;;;;6183864;28;20551;-57
2022/05/29 11:54:24;;;;;;;2.90;2.70;;;15.90;1.00;;;;;;6191542;28;20471;-57
2022/05/29 11:57:36;;;;;;;4.53;3.27;;;15.80;1.00;;;;;;6185237;28;20235;-55
2022/05/29 12:00:44;;;;;;;4.23;3.00;;;15.70;1.00;;;;;;6175134;28;20305;-61
2022/05/29 12:03:54;;;;;;;4.57;2.93;;;15.70;1.00;;;;;;6179176;28;20258;-58
2022/05/29 12:07:06;;;;;;;3.90;3.50;;;15.50;1.00;;;;;;6183841;28;20258;-56
2022/05/29 12:10:14;;;;;;;3.30;3.03;;;15.50;1.00;;;;;;6178598;28;20318;-56
2022/05/29 12:13:23;;;;;;;2.90;2.80;;;15.60;1.00;;;;;;6193197;28;20836;-58
2022/05/29 12:16:29;;;;;;;2.87;2.67;;;15.80;1.00;;;;;;6182112;28;20339;-57
2022/05/29 12:19:39;;;;;;;2.83;2.63;;;15.80;1.00;;;;;;6174923;28;20239;-55
2022/05/29 12:22:46;;;;;;;2.73;2.53;;;15.60;1.00;;;;;;6182733;28;20384;-57
2022/05/29 12:25:57;;;;;;;2.60;2.40;;;16.00;1.00;;;;;;6181175;28;20694;-58
2022/05/29 12:29:04;;;;;;;2.30;2.10;;;16.20;1.00;;;;;;6186300;28;20331;-56
2022/05/29 12:32:15;;;;;;;2.80;2.70;;;16.50;1.00;;;;;;6187700;28;20315;-57
2022/05/29 12:35:23;;;;;;;2.37;2.27;;;16.60;1.00;;;;;;6175411;28;20232;-56
2022/05/29 12:38:47;;;;;;;2.83;2.40;;;16.80;1.00;;;;;;6177374;28;20481;-57
2022/05/29 12:42:19;;;;;;;2.77;2.60;;;17.00;1.00;;;;;;6180505;28;20232;-56
2022/05/29 12:45:36;;;;;;;2.00;2.00;;;16.90;1.00;;;;;;6184228;28;20240;-57
2022/05/29 12:49:10;;;;;;;3.13;2.60;;;16.80;1.00;;;;;;6169302;28;20241;-58
2022/05/29 12:52:17;;;;;;;2.87;2.27;;;16.60;1.00;;;;;;6176574;28;20363;-57
2022/05/29 12:55:41;;;;;;;2.10;2.10;;;16.20;1.00;;;;;;6188055;28;20298;-56
2022/05/29 12:59:14;;;;;;;2.73;2.60;;;15.90;1.00;;;;;;6178651;28;20237;-57
2022/05/29 13:02:37;;;;;;;2.97;2.87;;;15.40;1.00;;;;;;6178383;28;20341;-58
2022/05/29 13:06:06;;;;;;;2.10;2.10;;;15.30;1.00;;;;;;6187798;28;20232;-57
2022/05/29 13:09:30;;;;;;;2.60;2.50;;;15.30;1.00;;;;;;6167492;28;20231;-57
2022/05/29 13:12:36;;;;;;;2.53;2.43;;;15.20;1.00;;;;;;6183425;28;20296;-56
2022/05/29 13:15:39;;;;;;;2.40;2.30;;;15.20;1.00;;;;;;6188729;28;20267;-56
2022/05/29 13:19:13;;;;;;;2.43;2.23;;;15.10;1.00;;;;;;6177572;28;20352;-57
2022/05/29 13:22:16;;;;;;;3.30;2.60;;;15.00;1.00;;;;;;6165162;28;20296;-56
2022/05/29 13:25:21;;;;;;;3.03;2.60;;;15.10;1.00;;;;;;6184614;28;20414;-55
2022/05/29 13:28:48;;;;;;;2.40;2.20;;;15.00;1.00;;;;;;6176111;28;20721;-57
2022/05/29 13:32:19;;;;;;;2.20;2.10;;;14.90;1.00;;;;;;6177137;28;20537;-56
2022/05/29 13:35:40;;;;;;;2.60;2.47;;;14.90;1.00;;;;;;6174755;28;20475;-56
2022/05/29 13:38:55;;;;;;;2.40;2.30;;;14.90;1.00;;;;;;6177932;28;20794;-57
2022/05/29 13:42:00;;;;;;;2.67;2.53;;;14.60;1.00;;;;;;6183295;28;20698;-57
2022/05/29 13:45:42;;;;;;;2.80;2.60;;;14.60;1.00;;;;;;6174836;28;20375;-57
2022/05/29 13:49:20;;;;;;;3.20;2.83;;;14.50;1.00;;;;;;6179611;28;20224;-56
2022/05/29 13:52:29;;;;;;;2.63;2.43;;;14.30;1.00;;;;;;6174789;28;20315;-58
2022/05/29 13:55:53;;;;;;;2.77;2.70;;;14.00;1.00;;;;;;6164995;28;20319;-57
2022/05/29 14:05:57;;;;;;;3.03;2.93;;;13.70;1.00;;;;;;6175047;28;20258;-57
2022/05/29 14:09:06;;;;;;;3.27;3.07;;;13.90;1.00;;;;;;6172729;28;20642;-58
2022/05/29 14:12:14;;;;;;;2.70;2.60;;;14.30;1.00;;;;;;6183790;28;20279;-58
2022/05/29 14:15:32;;;;;;;2.40;2.40;;;14.70;1.00;;;;;;6181762;28;20383;-59
2022/05/29 14:18:42;;;;;;;2.63;2.53;;;15.20;1.00;;;;;;6170660;28;20353;-58
2022/05/29 14:22:10;;;;;;;2.20;2.10;;;15.30;1.00;;;;;;6183220;28;20248;-58
2022/05/29 14:25:30;;;;;;;1.90;1.83;;;15.60;1.00;;;;;;6195296;28;20319;-57
2022/05/29 14:28:47;;;;;;;2.17;2.07;;;15.90;1.00;;;;;;6180543;28;20509;-57
2022/05/29 14:31:59;;;;;;;2.00;2.00;;;16.00;1.00;;;;;;6179369;28;20272;-57
2022/05/29 14:35:32;;;;;;;2.40;2.30;;;16.00;1.00;;;;;;6187924;28;20236;-56
2022/05/29 14:38:49;;;;;;;2.63;2.43;;;15.80;1.00;;;;;;6181573;28;20392;-57
2022/05/29 14:42:01;;;;;;;2.60;2.50;;;15.80;1.00;;;;;;6187503;28;20224;-57
2022/05/29 14:45:09;;;;;;;2.90;2.80;;;15.80;1.00;;;;;;6175358;28;20303;-56
2022/05/29 14:48:18;;;;;;;2.47;2.33;;;15.80;1.00;;;;;;6188395;28;20255;-56
2022/05/29 14:51:32;;;;;;;2.53;2.43;;;15.90;1.00;;;;;;6182281;28;20237;-56
2022/05/29 14:54:39;;;;;;;2.50;2.40;;;16.10;1.00;;;;;;6191505;28;20254;-58
2022/05/29 14:57:55;;;;;;;2.47;2.37;;;16.30;1.00;;;;;;6191082;28;20370;-57
2022/05/29 15:00:59;;;;;;;2.40;2.30;;;16.60;1.00;;;;;;6188049;28;20236;-56
2022/05/29 15:04:03;;;;;;;2.30;2.20;;;16.80;1.00;;;;;;6192268;28;20551;-57
2022/05/29 15:10:33;;;;;;;2.50;2.30;;;16.80;1.00;;;;;;6181541;28;20297;-58
2022/05/29 15:13:57;;;;;;;2.10;2.10;;;16.80;1.00;;;;;;6185574;28;20246;-61
2022/05/29 15:17:01;;;;;;;2.30;2.13;;;16.90;1.00;;;;;;6188562;28;20371;-57
2022/05/29 15:26:51;;;;;;;2.13;2.13;;;16.70;1.00;;;;;;6185519;28;20272;-57
2022/05/29 15:29:57;;;;;;;2.10;2.00;;;16.70;1.00;;;;;;6190064;28;20240;-59
2022/05/29 15:33:04;;;;;;;2.53;2.43;;;16.80;1.00;;;;;;6186525;28;20434;-57
2022/05/29 15:36:14;;;;;;;2.50;2.37;;;17.00;1.00;;;;;;6190233;28;20781;-64
2022/05/29 15:39:27;;;;;;;2.40;2.20;;;17.10;1.00;;;;;;6185754;28;20796;-56
2022/05/29 15:42:33;;;;;;;2.07;1.97;;;17.10;1.00;;;;;;6176527;28;20318;-57
2022/05/29 15:46:03;;;;;;;2.17;2.17;;;17.10;1.00;;;;;;6179093;28;20235;-57
2022/05/29 15:49:18;;;;;;;2.07;2.00;;;16.80;1.00;;;;;;6180753;28;20227;-57
2022/05/29 15:52:35;;;;;;;1.87;1.87;;;16.60;1.00;;;;;;6182389;28;20371;-56
2022/05/29 15:55:43;;;;;;;2.00;2.00;;;16.10;1.00;;;;;;6180840;28;20231;-60
2022/05/29 15:59:03;;;;;;;2.10;2.10;;;16.00;1.00;;;;;;6179195;28;20455;-57
2022/05/29 16:02:10;;;;;;;1.90;1.90;;;16.00;1.00;;;;;;6184959;28;20319;-57
2022/05/29 16:05:17;;;;;;;2.07;2.00;;;15.80;1.00;;;;;;6183211;28;20629;-56
2022/05/29 16:08:24;;;;;;;2.33;2.23;;;15.80;1.00;;;;;;6181887;28;20241;-55
2022/05/29 16:11:34;;;;;;;1.90;1.80;;;15.70;1.00;;;;;;6182014;28;20551;-57
2022/05/29 16:14:48;;;;;;;2.13;2.13;;;15.70;1.00;;;;;;6172611;28;20307;-57
2022/05/29 16:17:58;;;;;;;1.80;1.80;;;15.80;1.00;;;;;;6185128;28;20236;-56
2022/05/29 16:21:08;;;;;;;1.63;1.63;;;16.00;1.00;;;;;;6177371;28;20232;-57
2022/05/29 16:24:19;;;;;;;1.60;1.60;;;16.00;1.00;;;;;;6182828;28;20233;-56
2022/05/29 16:27:32;;;;;;;1.87;1.80;;;16.10;1.00;;;;;;6181869;28;20349;-57
2022/05/29 16:30:48;;;;;;;1.90;1.90;;;16.00;1.00;;;;;;6178277;28;20375;-55
2022/05/29 16:33:58;;;;;;;1.57;1.57;;;15.70;1.00;;;;;;6182959;28;20612;-57
2022/05/29 16:51:12;;;;;;;2.20;2.20;;;16.10;1.00;;;;;;6181027;28;20287;-58
2022/05/29 16:54:30;;;;;;;1.97;1.90;;;16.00;1.00;;;;;;6179780;28;20375;-57
2022/05/29 16:57:35;;;;;;;2.30;2.10;;;16.00;1.00;;;;;;6175685;28;20751;-57
2022/05/29 17:00:51;;;;;;;2.17;2.00;;;15.90;1.00;;;;;;6175751;28;20244;-55
2022/05/29 17:04:12;;;;;;;2.30;2.10;;;15.80;1.00;;;;;;6176692;28;20289;-56
2022/05/29 17:07:21;;;;;;;2.37;2.20;;;15.90;1.00;;;;;;6176078;28;20236;-58
2022/05/29 17:10:27;;;;;;;2.37;2.30;;;15.80;1.00;;;;;;6184672;28;20370;-57
2022/05/29 17:13:30;;;;;;;2.57;2.43;;;15.80;1.00;;;;;;6181889;28;20702;-56
2022/05/29 17:16:33;;;;;;;2.40;2.37;;;15.80;1.00;;;;;;6178503;28;20326;-57
2022/05/29 17:19:37;;;;;;;2.33;2.30;;;15.80;1.00;;;;;;6177181;28;20380;-55
2022/05/29 17:22:48;;;;;;;2.70;2.50;;;15.80;1.00;;;;;;6188342;28;20243;-57
2022/05/29 17:25:55;;;;;;;2.60;2.50;;;15.70;1.00;;;;;;6176885;28;20243;-57
2022/05/29 17:29:05;;;;;;;2.73;2.53;;;15.60;1.00;;;;;;6184794;28;20277;-56
2022/05/29 17:32:18;;;;;;;2.87;2.70;;;15.60;1.00;;;;;;6183801;28;20314;-56
2022/05/29 17:35:23;;;;;;;2.70;2.50;;;15.40;1.00;;;;;;6172139;28;20228;-56
2022/05/29 17:38:52;;;;;;;2.67;2.57;;;15.50;1.00;;;;;;6182609;28;20396;-57
2022/05/29 17:41:55;;;;;;;2.80;2.70;;;15.50;1.00;;;;;;6176597;28;20291;-55
2022/05/29 17:45:00;;;;;;;3.07;2.87;;;15.30;1.00;;;;;;6158892;28;20232;-57
2022/05/29 17:48:14;;;;;;;3.40;3.20;;;15.30;1.00;;;;;;6181063;28;20240;-55